createdAt,value
2023-01-15T00:00:29.345Z,1.41
2023-01-15T00:03:32.912Z,1.36
2023-01-15T00:06:38.662Z,1.34
2023-01-15T00:09:41.845Z,1.34
2023-01-15T00:12:45.565Z,0.38
2023-01-15T00:15:48.726Z,0.93
2023-01-15T00:18:57.088Z,1.27
2023-01-15T00:22:00.443Z,1.23
2023-01-15T00:25:21.944Z,1.17
2023-01-15T00:28:25.154Z,1.23
2023-01-15T00:31:29.221Z,1.22
2023-01-15T00:34:32.868Z,1.23
2023-01-15T00:37:36.615Z,1.26
2023-01-15T00:40:45.827Z,1.21
2023-01-15T00:43:49.566Z,1.07
2023-01-15T00:46:52.805Z,1.12
2023-01-15T00:49:57.093Z,0.57
2023-01-15T00:53:00.264Z,1.23
2023-01-15T00:56:03.256Z,1.10
2023-01-15T00:59:06.689Z,1.30
2023-01-15T01:02:10.412Z,1.22
2023-01-15T01:05:13.665Z,1.22
2023-01-15T01:08:17.237Z,1.23
2023-01-15T01:11:24.070Z,1.20
2023-01-15T01:14:28.164Z,1.17
2023-01-15T01:17:32.277Z,1.02
2023-01-15T01:20:38.823Z,1.16
2023-01-15T01:23:42.346Z,1.20
2023-01-15T01:26:46.367Z,1.10
2023-01-15T01:29:49.823Z,1.20
2023-01-15T01:32:53.030Z,1.11
2023-01-15T01:35:56.024Z,1.11
2023-01-15T01:38:59.170Z,0.82
2023-01-15T01:42:02.354Z,1.08
2023-01-15T01:45:10.380Z,1.03
2023-01-15T01:48:14.493Z,0.97
2023-01-15T01:51:19.137Z,1.01
2023-01-15T01:54:24.640Z,0.99
2023-01-15T01:57:27.474Z,0.91
2023-01-15T02:00:33.746Z,0.98
2023-01-15T02:03:38.464Z,0.95
2023-01-15T02:06:42.894Z,0.90
2023-01-15T02:09:46.076Z,0.94
2023-01-15T02:13:01.234Z,0.91
2023-01-15T02:16:05.748Z,0.95
2023-01-15T02:19:27.488Z,1.06
2023-01-15T02:22:41.617Z,1.05
2023-01-15T02:26:18.825Z,1.02
2023-01-15T02:29:51.194Z,1.03
2023-01-15T02:33:00.557Z,0.97
2023-01-15T02:36:06.901Z,1.02
2023-01-15T02:39:12.596Z,1.03
2023-01-15T02:42:17.953Z,1.06
2023-01-15T02:45:29.548Z,1.11
2023-01-15T02:48:37.264Z,1.10
2023-01-15T02:52:01.723Z,0.98
2023-01-15T02:55:12.727Z,1.04
2023-01-15T02:58:38.179Z,0.38
2023-01-15T03:01:48.649Z,0.98
2023-01-15T03:05:06.835Z,1.03
2023-01-15T03:08:11.741Z,0.90
2023-01-15T03:11:19.236Z,0.92
2023-01-15T03:14:32.121Z,0.90
2023-01-15T03:17:54.730Z,0.91
2023-01-15T03:21:01.411Z,0.89
2023-01-15T03:24:05.795Z,0.90
2023-01-15T03:27:09.107Z,0.80
2023-01-15T03:30:16.476Z,0.91
2023-01-15T03:33:22.537Z,0.84
2023-01-15T03:36:25.319Z,-0.35
2023-01-15T03:39:30.353Z,0.90
2023-01-15T03:43:17.055Z,0.93
2023-01-15T03:46:36.030Z,0.87
2023-01-15T03:49:41.467Z,0.78
2023-01-15T03:53:06.284Z,0.74
2023-01-15T03:56:16.392Z,-0.05
2023-01-15T03:59:24.413Z,0.80
2023-01-15T04:02:29.801Z,0.84
2023-01-15T04:05:34.951Z,0.87
2023-01-15T04:08:41.072Z,0.85
2023-01-15T04:11:44.401Z,0.90
2023-01-15T04:14:48.353Z,0.94
2023-01-15T04:17:51.822Z,0.95
2023-01-15T04:20:55.786Z,0.94
2023-01-15T04:23:59.136Z,0.89
2023-01-15T04:27:01.738Z,0.94
2023-01-15T04:30:05.281Z,0.92
2023-01-15T04:33:09.427Z,0.93
2023-01-15T04:36:14.571Z,0.63
2023-01-15T04:39:18.045Z,0.86
2023-01-15T04:42:43.254Z,0.83
2023-01-15T04:45:46.308Z,0.82
2023-01-15T04:48:49.823Z,0.82
2023-01-15T04:51:52.524Z,0.82
2023-01-15T04:54:56.094Z,0.84
2023-01-15T04:57:59.413Z,0.80
2023-01-15T05:01:05.359Z,0.79
2023-01-15T05:04:08.493Z,0.83
2023-01-15T05:07:11.708Z,0.78
2023-01-15T05:10:14.628Z,0.31
2023-01-15T05:13:19.027Z,0.85
2023-01-15T05:16:24.810Z,0.80
2023-01-15T05:19:27.956Z,0.80
2023-01-15T05:22:31.261Z,-0.26
2023-01-15T05:25:39.023Z,0.84
2023-01-15T05:28:43.230Z,0.82
2023-01-15T05:31:46.704Z,0.80
2023-01-15T05:34:49.904Z,0.66
2023-01-15T05:37:52.982Z,0.86
2023-01-15T05:40:56.341Z,0.05
2023-01-15T05:44:05.438Z,0.82
2023-01-15T05:47:10.453Z,0.81
2023-01-15T05:50:14.089Z,0.77
2023-01-15T05:53:17.240Z,0.79
2023-01-15T05:56:20.290Z,0.48
2023-01-15T05:59:25.803Z,-0.03
2023-01-15T06:02:28.923Z,-0.02
2023-01-15T06:05:32.402Z,-0.26
2023-01-15T06:08:35.650Z,0.27
2023-01-15T06:11:39.721Z,0.82
2023-01-15T06:14:43.380Z,0.71
2023-01-15T06:17:50.905Z,0.86
2023-01-15T06:20:54.376Z,0.86
2023-01-15T06:23:57.474Z,0.89
2023-01-15T06:27:00.145Z,0.93
2023-01-15T06:30:04.111Z,0.25
2023-01-15T06:33:09.593Z,0.98
2023-01-15T06:36:23.623Z,0.88
2023-01-15T06:39:26.843Z,0.98
2023-01-15T06:43:02.175Z,0.98
2023-01-15T06:46:24.104Z,0.81
2023-01-15T06:49:27.582Z,0.84
2023-01-15T06:52:30.515Z,1.03
2023-01-15T06:55:33.661Z,1.02
2023-01-15T06:58:38.434Z,0.61
2023-01-15T07:01:41.849Z,0.27
2023-01-15T07:04:44.908Z,0.60
2023-01-15T07:07:48.192Z,1.12
2023-01-15T07:10:53.430Z,0.30
2023-01-15T07:14:06.202Z,1.18
2023-01-15T07:17:09.420Z,0.88
2023-01-15T07:20:15.315Z,1.20
2023-01-15T07:23:18.364Z,1.21
2023-01-15T07:26:21.271Z,0.41
2023-01-15T07:29:24.170Z,0.46
2023-01-15T07:32:27.543Z,0.83
2023-01-15T07:35:31.142Z,1.37
2023-01-15T07:38:34.416Z,1.35
2023-01-15T07:41:56.946Z,1.35
2023-01-15T07:45:18.899Z,1.41
2023-01-15T07:48:40.658Z,1.29
2023-01-15T07:51:44.338Z,1.47
2023-01-15T07:54:49.435Z,1.48
2023-01-15T07:57:53.676Z,1.46
2023-01-15T08:00:58.897Z,1.52
2023-01-15T08:04:02.094Z,1.57
2023-01-15T08:07:05.444Z,0.80
2023-01-15T08:10:10.417Z,1.60
2023-01-15T08:13:32.121Z,1.62
2023-01-15T08:16:37.488Z,1.67
2023-01-15T08:19:40.358Z,1.72
2023-01-15T08:22:44.570Z,1.73
2023-01-15T08:25:47.427Z,0.66
2023-01-15T08:28:50.998Z,0.97
2023-01-15T08:31:53.891Z,1.82
2023-01-15T08:34:58.118Z,1.88
2023-01-15T08:38:07.789Z,1.90
2023-01-15T08:41:11.368Z,1.94
2023-01-15T08:44:14.274Z,1.81
2023-01-15T08:47:17.860Z,1.83
2023-01-15T08:50:21.679Z,2.04
2023-01-15T08:53:26.485Z,2.09
2023-01-15T08:56:29.540Z,2.15
2023-01-15T08:59:52.550Z,2.12
2023-01-15T09:03:15.413Z,2.12
2023-01-15T09:06:19.001Z,2.12
2023-01-15T09:09:21.982Z,2.23
2023-01-15T09:12:27.449Z,1.45
2023-01-15T09:15:31.395Z,1.98
2023-01-15T09:18:36.103Z,2.18
2023-01-15T09:21:39.653Z,1.79
2023-01-15T09:24:42.745Z,2.44
2023-01-15T09:27:46.403Z,2.30
2023-01-15T09:30:50.224Z,1.77
2023-01-15T09:33:53.208Z,2.57
2023-01-15T09:36:56.359Z,2.58
2023-01-15T09:40:03.380Z,2.32
2023-01-15T09:43:55.769Z,2.61
2023-01-15T09:47:22.256Z,2.66
2023-01-15T09:50:44.554Z,2.73
2023-01-15T09:53:56.287Z,3.12
2023-01-15T09:56:59.572Z,3.16
2023-01-15T10:00:05.496Z,3.09
2023-01-15T10:03:33.803Z,3.07
2023-01-15T10:06:51.681Z,3.11
2023-01-15T10:10:11.105Z,3.05
2023-01-15T10:13:22.883Z,3.12
2023-01-15T10:16:27.845Z,3.05
2023-01-15T10:19:43.988Z,3.15
2023-01-15T10:23:12.728Z,3.15
2023-01-15T10:26:43.060Z,3.20
2023-01-15T10:29:50.027Z,3.17
2023-01-15T10:33:02.380Z,3.23
2023-01-15T10:36:10.871Z,3.29
2023-01-15T10:39:30.655Z,3.48
2023-01-15T10:42:55.798Z,3.80
2023-01-15T10:46:05.482Z,3.82
2023-01-15T10:49:16.800Z,3.84
2023-01-15T10:52:26.664Z,4.09
2023-01-15T10:55:32.408Z,4.12
2023-01-15T10:58:47.281Z,4.15
2023-01-15T11:01:53.024Z,4.20
2023-01-15T11:04:56.090Z,4.32
2023-01-15T11:08:39.181Z,4.23
2023-01-15T11:11:55.105Z,4.43
2023-01-15T11:15:16.586Z,4.87
2023-01-15T11:18:47.091Z,4.46
2023-01-15T11:21:50.481Z,4.28
2023-01-15T11:25:01.553Z,4.11
2023-01-15T11:28:07.182Z,3.96
2023-01-15T11:31:11.792Z,3.96
2023-01-15T11:34:22.207Z,3.85
2023-01-15T11:37:25.986Z,3.95
2023-01-15T11:40:28.803Z,3.99
2023-01-15T11:43:50.987Z,4.12
2023-01-15T11:47:14.391Z,4.29
2023-01-15T11:50:36.929Z,4.31
2023-01-15T11:53:48.518Z,5.12
2023-01-15T11:56:51.438Z,5.57
2023-01-15T11:59:54.136Z,5.60
2023-01-15T12:03:06.978Z,5.60
2023-01-15T12:06:12.037Z,5.62
2023-01-15T12:09:43.997Z,5.54
2023-01-15T12:12:51.733Z,5.89
2023-01-15T12:16:07.009Z,5.83
2023-01-15T12:19:28.695Z,5.37
2023-01-15T12:23:09.204Z,5.07
2023-01-15T12:26:20.717Z,4.84
2023-01-15T12:29:32.490Z,4.80
2023-01-15T12:32:41.826Z,4.66
2023-01-15T12:35:56.295Z,4.74
2023-01-15T12:39:11.526Z,4.76
2023-01-15T12:42:36.263Z,4.84
2023-01-15T12:45:46.146Z,4.40
2023-01-15T12:48:57.547Z,4.75
2023-01-15T12:52:08.844Z,4.68
2023-01-15T12:55:15.960Z,4.71
2023-01-15T12:58:39.451Z,4.78
2023-01-15T13:01:49.613Z,4.86
2023-01-15T13:04:59.301Z,4.87
2023-01-15T13:08:16.263Z,5.16
2023-01-15T13:11:19.068Z,5.44
2023-01-15T13:14:22.975Z,5.66
2023-01-15T13:17:51.990Z,5.71
2023-01-15T13:20:55.622Z,5.47
2023-01-15T13:24:15.099Z,5.36
2023-01-15T13:27:33.353Z,5.24
2023-01-15T13:30:58.031Z,5.15
2023-01-15T13:34:05.104Z,5.10
2023-01-15T13:37:20.369Z,5.06
2023-01-15T13:40:41.018Z,5.05
2023-01-15T13:43:44.174Z,5.06
2023-01-15T13:46:48.417Z,5.04
2023-01-15T13:49:54.308Z,5.06
2023-01-15T13:53:06.880Z,5.00
2023-01-15T13:56:14.816Z,5.03
2023-01-15T13:59:45.665Z,5.04
2023-01-15T14:02:56.948Z,5.05
2023-01-15T14:06:02.720Z,5.62
2023-01-15T14:09:05.916Z,5.41
2023-01-15T14:12:44.304Z,5.23
2023-01-15T14:16:15.597Z,5.10
2023-01-15T14:19:21.988Z,5.04
2023-01-15T14:22:46.002Z,4.95
2023-01-15T14:26:10.847Z,4.88
2023-01-15T14:29:49.884Z,4.83
2023-01-15T14:33:17.723Z,4.80
2023-01-15T14:36:29.201Z,4.75
2023-01-15T14:39:53.666Z,4.71
2023-01-15T14:43:10.326Z,4.69
2023-01-15T14:46:20.492Z,4.64
2023-01-15T14:49:29.116Z,4.60
2023-01-15T14:52:33.208Z,4.52
2023-01-15T14:55:39.659Z,4.53
2023-01-15T14:58:48.382Z,4.51
2023-01-15T15:02:06.199Z,4.48
2023-01-15T15:05:21.231Z,4.39
2023-01-15T15:08:30.403Z,4.18
2023-01-15T15:12:02.644Z,4.44
2023-01-15T15:15:20.136Z,4.41
2023-01-15T15:18:33.132Z,4.41
2023-01-15T15:21:43.191Z,4.40
2023-01-15T15:24:48.668Z,4.38
2023-01-15T15:28:05.471Z,4.36
2023-01-15T15:31:10.572Z,4.34
2023-01-15T15:34:18.410Z,4.31
2023-01-15T15:37:27.506Z,4.31
2023-01-15T15:40:37.095Z,4.31
2023-01-15T15:44:16.504Z,4.32
2023-01-15T15:47:43.392Z,4.34
2023-01-15T15:50:48.048Z,4.33
2023-01-15T15:53:50.909Z,4.24
2023-01-15T15:57:12.655Z,4.36
2023-01-15T16:00:20.130Z,4.36
2023-01-15T16:03:25.872Z,4.36
2023-01-15T16:06:29.296Z,4.34
2023-01-15T16:09:32.961Z,4.35
2023-01-15T16:12:42.524Z,4.34
2023-01-15T16:15:48.639Z,4.33
2023-01-15T16:19:00.660Z,4.36
2023-01-15T16:22:06.903Z,4.33
2023-01-15T16:25:26.637Z,4.32
2023-01-15T16:28:38.841Z,4.30
2023-01-15T16:31:42.050Z,4.28
2023-01-15T16:34:45.477Z,4.26
2023-01-15T16:37:54.316Z,4.25
2023-01-15T16:40:57.733Z,4.25
2023-01-15T16:44:02.779Z,4.22
2023-01-15T16:47:07.073Z,4.22
2023-01-15T16:50:22.514Z,4.22
2023-01-15T16:53:41.193Z,4.21
2023-01-15T16:56:44.409Z,4.22
2023-01-15T16:59:56.316Z,4.21
2023-01-15T17:02:59.186Z,4.20
2023-01-15T17:06:05.290Z,3.45
2023-01-15T17:09:14.245Z,4.19
2023-01-15T17:12:31.287Z,4.18
2023-01-15T17:15:37.775Z,4.17
2023-01-15T17:18:41.109Z,4.16
2023-01-15T17:21:47.720Z,4.16
2023-01-15T17:24:53.989Z,4.06
2023-01-15T17:27:59.558Z,4.14
2023-01-15T17:31:03.646Z,4.13
2023-01-15T17:34:07.077Z,4.12
2023-01-15T17:37:10.470Z,4.11
2023-01-15T17:40:13.604Z,4.07
2023-01-15T17:43:16.619Z,4.03
2023-01-15T17:46:19.876Z,3.99
2023-01-15T17:49:26.050Z,3.97
2023-01-15T17:52:29.251Z,3.41
2023-01-15T17:55:51.704Z,3.93
2023-01-15T17:59:14.733Z,3.88
2023-01-15T18:02:37.336Z,3.86
2023-01-15T18:05:42.623Z,3.76
2023-01-15T18:08:53.095Z,3.83
2023-01-15T18:11:57.963Z,3.77
2023-01-15T18:15:01.314Z,3.77
2023-01-15T18:18:04.910Z,3.76
2023-01-15T18:21:10.353Z,3.74
2023-01-15T18:24:13.751Z,3.73
2023-01-15T18:27:19.360Z,3.20
2023-01-15T18:30:23.779Z,3.69
2023-01-15T18:33:26.684Z,3.67
2023-01-15T18:36:30.362Z,3.68
2023-01-15T18:39:35.874Z,3.67
2023-01-15T18:42:58.491Z,3.64
2023-01-15T18:46:20.348Z,3.65
2023-01-15T18:49:24.587Z,3.63
2023-01-15T18:52:47.546Z,3.63
2023-01-15T18:55:51.273Z,3.64
2023-01-15T18:58:56.567Z,3.62
2023-01-15T19:02:00.556Z,3.59
2023-01-15T19:05:04.519Z,3.44
2023-01-15T19:08:08.250Z,3.62
2023-01-15T19:11:13.193Z,3.65
2023-01-15T19:14:34.829Z,3.61
2023-01-15T19:17:56.546Z,3.66
2023-01-15T19:21:00.320Z,3.64
2023-01-15T19:24:04.930Z,3.52
2023-01-15T19:27:09.492Z,3.63
2023-01-15T19:30:13.277Z,3.61
2023-01-15T19:33:16.448Z,3.60
2023-01-15T19:36:19.682Z,3.59
2023-01-15T19:39:23.202Z,3.58
2023-01-15T19:42:44.909Z,3.58
2023-01-15T19:46:06.405Z,3.30
2023-01-15T19:49:49.671Z,3.50
2023-01-15T19:52:56.104Z,3.50
2023-01-15T19:56:00.864Z,3.59
2023-01-15T19:59:04.601Z,3.60
2023-01-15T20:02:07.564Z,3.58
2023-01-15T20:05:12.146Z,3.57
2023-01-15T20:08:18.803Z,3.57
2023-01-15T20:11:22.987Z,3.59
2023-01-15T20:14:29.521Z,3.59
2023-01-15T20:17:33.541Z,3.59
2023-01-15T20:20:38.120Z,3.28
2023-01-15T20:23:42.571Z,3.58
2023-01-15T20:26:46.254Z,3.59
2023-01-15T20:30:10.004Z,3.61
2023-01-15T20:33:14.108Z,3.64
2023-01-15T20:36:19.587Z,3.66
2023-01-15T20:39:23.736Z,3.66
2023-01-15T20:42:48.256Z,3.59
2023-01-15T20:45:52.166Z,3.63
2023-01-15T20:49:14.244Z,3.67
2023-01-15T20:52:17.812Z,3.68
2023-01-15T20:55:22.396Z,3.65
2023-01-15T20:58:25.427Z,3.65
2023-01-15T21:01:29.583Z,3.67
2023-01-15T21:04:33.470Z,3.68
2023-01-15T21:07:38.149Z,3.71
2023-01-15T21:10:41.658Z,3.69
2023-01-15T21:13:45.959Z,3.69
2023-01-15T21:16:53.681Z,3.71
2023-01-15T21:19:56.961Z,3.73
2023-01-15T21:22:59.775Z,3.73
2023-01-15T21:26:03.245Z,3.74
2023-01-15T21:29:06.037Z,3.71
2023-01-15T21:32:09.236Z,3.70
2023-01-15T21:35:14.763Z,3.72
2023-01-15T21:38:17.760Z,3.73
2023-01-15T21:41:40.606Z,3.72
2023-01-15T21:44:44.411Z,3.72
2023-01-15T21:47:47.539Z,3.73
2023-01-15T21:50:50.526Z,3.74
2023-01-15T21:53:53.539Z,3.75
2023-01-15T21:56:56.767Z,3.74
2023-01-15T22:00:00.145Z,3.74
2023-01-15T22:03:03.561Z,3.71
2023-01-15T22:06:13.179Z,3.71
2023-01-15T22:09:17.176Z,3.73
2023-01-15T22:12:20.374Z,3.71
2023-01-15T22:15:23.437Z,3.71
2023-01-15T22:18:27.974Z,3.72
2023-01-15T22:21:30.870Z,3.72
2023-01-15T22:24:35.169Z,3.71
2023-01-15T22:27:41.026Z,3.70
2023-01-15T22:30:44.190Z,3.68
2023-01-15T22:33:47.126Z,3.67
2023-01-15T22:36:51.182Z,3.65
2023-01-15T22:39:54.341Z,3.64
2023-01-15T22:42:57.436Z,3.62
2023-01-15T22:46:13.743Z,3.59
2023-01-15T22:49:17.581Z,3.53
2023-01-15T22:52:20.848Z,3.56
2023-01-15T22:55:23.981Z,3.51
2023-01-15T22:58:26.844Z,3.48
2023-01-15T23:01:30.113Z,3.44
2023-01-15T23:04:34.354Z,3.42
2023-01-15T23:07:40.579Z,3.39
2023-01-15T23:10:47.602Z,3.38
2023-01-15T23:13:50.715Z,3.38
2023-01-15T23:16:54.989Z,3.39
2023-01-15T23:19:58.064Z,3.38
2023-01-15T23:23:01.125Z,3.37
2023-01-15T23:26:06.264Z,3.36
2023-01-15T23:29:09.261Z,3.34
2023-01-15T23:32:12.556Z,3.35
2023-01-15T23:35:17.079Z,3.36
2023-01-15T23:38:20.913Z,3.37
2023-01-15T23:41:45.002Z,3.37
2023-01-15T23:45:06.975Z,3.38
2023-01-15T23:48:09.764Z,3.38
2023-01-15T23:51:13.300Z,3.33
2023-01-15T23:54:16.145Z,3.35
2023-01-15T23:57:19.090Z,3.35
